Sunday, January 21, 2018, 8:35 PM GMT
Back to Local

CWAF, Ile Rouge Meteorological Aeronautical Presentation System

Location: , , Canada Lat: 48.083
Local Time: 8:35 PM GMT (20:35 GMT) Lon: -69.55
Time Zone: GMT Elev: 16 ft

Show me the last for .
Show Coded

Time T Td Feel RH Dir Speed Gust Alt SLP Vis Weather Sky Remarks
2018-01-21 20:00 17 7 -1 64 300° 21 - - - 0 Peak wind: 27 mph (24 kts) from 300° at 41 min
2018-01-21 19:00 15 6 -4 66 310° 20 25 - - 0 Peak wind: 28 mph (25 kts) from 300° at 00 min
2018-01-21 18:00 15 8 -4 70 300° 21 26 - - 0 Peak wind: 26 mph (23 kts) from 300° at 59 min
2018-01-21 17:00 14 6 -5 71 300° 23 - - - 0 Peak wind: 41 mph (36 kts) from 300° at 01 min
2018-01-21 16:00 15 8 -7 74 300° 36 - - - 0 Peak wind: 41 mph (36 kts) from 300° at 47 min
2018-01-21 15:00 14 6 -10 71 290° 32 39 - - 0 Peak wind: 39 mph (34 kts) from 290° at 51 min
2018-01-21 14:00 13 6 -7 71 270° 21 26 - - 0 Peak wind: 29 mph (26 kts) from 270° at 48 min
2018-01-21 13:00 14 7 -5 74 280° 24 - - - 0 Peak wind: 37 mph (33 kts) from 290° at 11 min
2018-01-21 12:00 14 8 -5 76 290° 25 - - - 0 Peak wind: 29 mph (26 kts) from 300° at 58 min
2018-01-21 11:00 16 11 -2 80 290° 21 - - - 0 Peak wind: 29 mph (26 kts) from 300° at 11 min
2018-01-21 10:00 16 10 -4 77 300° 21 29 - - 0 Peak wind: 31 mph (27 kts) from 300° at 00 min
2018-01-21 09:00 17 11 -4 77 300° 26 33 - - 0 Peak wind: 34 mph (30 kts) from 310° at 28 min
2018-01-21 08:00 17 11 -3 77 300° 25 33 - - 0 Peak wind: 33 mph (29 kts) from 310° at 57 min
2018-01-21 07:00 18 11 -1 75 300° 20 26 - - 0 Peak wind: 32 mph (28 kts) from 310° at 42 min
2018-01-21 06:00 18 12 1 77 280° 23 - - - 0 Peak wind: 34 mph (30 kts) from 280° at 10 min
2018-01-21 05:00 19 13 -1 77 280° 25 32 - - 0 Peak wind: 39 mph (34 kts) from 280° at 12 min
2018-01-21 04:00 19 12 -3 74 280° 33 41 - - 0 Peak wind: 41 mph (36 kts) from 280° at 58 min
2018-01-21 03:00 20 13 0 74 280° 28 38 - - 0 Peak wind: 37 mph (33 kts) from 280° at 51 min
2018-01-21 02:00 22 15 2 75 280° 29 35 - - 0 Peak wind: 42 mph (37 kts) from 280° at 04 min
2018-01-21 01:00 23 16 3 74 280° 35 41 - - 0 Peak wind: 46 mph (40 kts) from 290° at 22 min
2018-01-21 00:00 24 16 4 71 290° 33 40 - - 0 Peak wind: 40 mph (35 kts) from 280° at 59 min
2018-01-20 23:00 26 19 8 73 280° 31 39 - - 0 Peak wind: 48 mph (42 kts) from 290° at 42 min
2018-01-20 22:00 30 23 13 73 280° 38 46 - - 0 Peak wind: 47 mph (41 kts) from 280° at 46 min
2018-01-20 21:00 34 27 21 73 280° 21 29 - - 0 Peak wind: 43 mph (38 kts) from 290° at 01 min

Support USWX by starting your Amazon purchase here.